createdAt,value
2023-01-26T00:00:40.749Z,18.9
2023-01-26T00:04:40.754Z,15.73
2023-01-26T00:08:40.184Z,17.57
2023-01-26T00:12:40.951Z,18.8
2023-01-26T00:16:40.819Z,15.9
2023-01-26T00:20:41.213Z,16.53
2023-01-26T00:24:39.896Z,17.9
2023-01-26T00:28:40.720Z,18.87
2023-01-26T00:32:40.485Z,17.43
2023-01-26T00:36:40.960Z,17.57
2023-01-26T00:40:40.592Z,17.73
2023-01-26T00:44:39.988Z,15.07
2023-01-26T00:48:40.642Z,13.67
2023-01-26T00:52:40.531Z,14.3
2023-01-26T00:56:40.307Z,15.9
2023-01-26T01:00:39.463Z,16.23
2023-01-26T01:04:40.492Z,16.43
2023-01-26T01:08:40.361Z,17.97
2023-01-26T01:12:40.979Z,17.13
2023-01-26T01:16:40.602Z,16.1
2023-01-26T01:20:40.449Z,14.93
2023-01-26T01:24:40.661Z,14.8
2023-01-26T01:28:40.453Z,15.17
2023-01-26T01:32:39.695Z,15.77
2023-01-26T01:36:40.505Z,14.5
2023-01-26T01:40:40.774Z,13.9
2023-01-26T01:44:40.492Z,13.3
2023-01-26T01:48:40.619Z,11.93
2023-01-26T01:52:41.175Z,13.8
2023-01-26T01:56:40.640Z,13.47
2023-01-26T02:00:40.630Z,13.7
2023-01-26T02:04:40.525Z,13.33
2023-01-26T02:08:40.607Z,12.87
2023-01-26T02:12:40.554Z,13.7
2023-01-26T02:16:40.614Z,13.4
2023-01-26T02:20:40.124Z,14.7
2023-01-26T02:24:40.651Z,10.97
2023-01-26T02:28:40.179Z,13.43
2023-01-26T02:32:41.169Z,12.53
2023-01-26T02:36:40.469Z,14
2023-01-26T02:40:40.723Z,11.8
2023-01-26T02:44:40.247Z,13.53
2023-01-26T02:48:40.515Z,15.43
2023-01-26T02:52:40.723Z,14.67
2023-01-26T02:56:40.623Z,12.93
2023-01-26T03:00:40.746Z,13.1
2023-01-26T03:04:40.447Z,12.83
2023-01-26T03:08:40.419Z,13.6
2023-01-26T03:12:40.898Z,9.93
2023-01-26T03:16:40.573Z,12.57
2023-01-26T03:20:40.535Z,11.93
2023-01-26T03:24:40.540Z,11.43
2023-01-26T03:28:40.683Z,11.6
2023-01-26T03:32:40.548Z,13.3
2023-01-26T03:36:40.480Z,12.07
2023-01-26T03:40:40.668Z,12.93
2023-01-26T03:44:40.552Z,11.43
2023-01-26T03:48:40.048Z,11.93
2023-01-26T03:52:41.234Z,10.43
2023-01-26T03:56:40.519Z,10.13
2023-01-26T04:00:40.627Z,9.73
2023-01-26T04:04:40.579Z,11.6
2023-01-26T04:08:40.481Z,10.57
2023-01-26T04:12:40.634Z,10.93
2023-01-26T04:16:39.816Z,9.97
2023-01-26T04:20:41.089Z,10.6
2023-01-26T04:24:40.551Z,9.4
2023-01-26T04:28:40.518Z,9.37
2023-01-26T04:32:41.060Z,8.7
2023-01-26T04:36:40.628Z,8.67
2023-01-26T04:40:40.463Z,8.93
2023-01-26T04:44:40.295Z,9.1
2023-01-26T04:48:40.863Z,8.97
2023-01-26T04:52:40.619Z,9.3
2023-01-26T04:56:40.716Z,8.93
2023-01-26T05:00:41.003Z,9.7
2023-01-26T05:04:40.357Z,9.1
2023-01-26T05:08:40.521Z,8.87
2023-01-26T05:12:40.603Z,10.3
2023-01-26T05:16:40.565Z,10.97
2023-01-26T05:20:40.608Z,11.9
2023-01-26T05:24:39.538Z,11.17
2023-01-26T05:28:40.466Z,10.07
2023-01-26T05:32:40.714Z,10.7
2023-01-26T05:36:40.836Z,11.67
2023-01-26T05:40:40.690Z,11.57
2023-01-26T05:44:40.559Z,11.2
2023-01-26T05:48:40.505Z,9.07
2023-01-26T05:52:40.452Z,11
2023-01-26T05:56:40.309Z,11
2023-01-26T06:00:41.511Z,11.1
2023-01-26T06:04:39.624Z,12.23
2023-01-26T06:08:40.596Z,11.37
2023-01-26T06:12:40.583Z,11.77
2023-01-26T06:16:40.566Z,11.47
2023-01-26T06:20:41.889Z,10.67
2023-01-26T06:24:40.995Z,11.23
2023-01-26T06:28:40.882Z,13.33
2023-01-26T06:32:39.790Z,11.9
2023-01-26T06:36:40.491Z,9.63
2023-01-26T06:40:40.788Z,12.43
2023-01-26T06:44:40.621Z,11.73
2023-01-26T06:48:40.550Z,11.43
2023-01-26T06:52:42.245Z,11.1
2023-01-26T06:56:40.296Z,12.23
2023-01-26T07:00:40.547Z,11.87
2023-01-26T07:04:40.494Z,13.77
2023-01-26T07:08:40.545Z,15.4
2023-01-26T07:12:40.570Z,14.43
2023-01-26T07:16:40.688Z,15.07
2023-01-26T07:20:40.656Z,13.77
2023-01-26T07:24:40.687Z,12.57
2023-01-26T07:28:40.610Z,14.3
2023-01-26T07:32:40.984Z,11.93
2023-01-26T07:36:40.495Z,13.27
2023-01-26T07:40:40.590Z,11.37
2023-01-26T07:44:40.552Z,15.5
2023-01-26T07:48:40.599Z,15.6
2023-01-26T07:52:41.043Z,19.87
2023-01-26T07:56:40.458Z,15.83
2023-01-26T08:00:40.351Z,15.67
2023-01-26T08:04:41.211Z,17.8
2023-01-26T08:08:40.592Z,15.6
2023-01-26T08:12:41.358Z,15.13
2023-01-26T08:16:40.321Z,14.83
2023-01-26T08:20:40.524Z,15.3
2023-01-26T08:24:40.719Z,15.07
2023-01-26T08:28:40.498Z,16.3
2023-01-26T08:32:40.575Z,15
2023-01-26T08:36:40.527Z,17.73
2023-01-26T08:40:40.800Z,15.57
2023-01-26T08:44:40.511Z,17.9
2023-01-26T08:48:40.908Z,15.2
2023-01-26T08:52:40.544Z,17.97
2023-01-26T08:56:40.441Z,16.93
2023-01-26T09:00:40.532Z,16.67
2023-01-26T09:04:40.850Z,16.27
2023-01-26T09:08:40.690Z,16.37
2023-01-26T09:12:41.215Z,12.07
2023-01-26T09:16:40.575Z,13.07
2023-01-26T09:20:41.116Z,14.73
2023-01-26T09:24:40.664Z,9.77
2023-01-26T09:28:40.991Z,12.5
2023-01-26T09:32:40.918Z,12.53
2023-01-26T09:36:41.577Z,13.13
2023-01-26T09:40:40.753Z,16.63
2023-01-26T09:44:41.171Z,12.67
2023-01-26T09:48:40.851Z,14.37
2023-01-26T09:52:40.531Z,13
2023-01-26T09:56:40.548Z,12.6
2023-01-26T10:00:41.023Z,13.17
2023-01-26T10:04:40.480Z,14.47
2023-01-26T10:08:40.301Z,15
2023-01-26T10:12:41.341Z,13
2023-01-26T10:16:40.658Z,12.17
2023-01-26T10:20:40.448Z,12.87
2023-01-26T10:24:40.612Z,14.1
2023-01-26T10:28:40.325Z,14.3
2023-01-26T10:32:40.674Z,13.83
2023-01-26T10:36:41.194Z,14.3
2023-01-26T10:40:39.707Z,15.03
2023-01-26T10:44:41.123Z,15.5
2023-01-26T10:48:40.655Z,17.27
2023-01-26T10:52:40.932Z,18.87
2023-01-26T10:56:40.274Z,17.37
2023-01-26T11:00:40.763Z,18.2
2023-01-26T11:04:40.556Z,18.33
2023-01-26T11:08:40.581Z,18.93
2023-01-26T11:12:41.099Z,19.33
2023-01-26T11:16:40.641Z,16.37
2023-01-26T11:20:40.557Z,15.3
2023-01-26T11:24:42.520Z,17.27
2023-01-26T11:28:40.626Z,15.3
2023-01-26T11:32:41.053Z,16.2
2023-01-26T11:36:40.635Z,15.87
2023-01-26T11:40:40.566Z,15.43
2023-01-26T11:44:40.477Z,15.4
2023-01-26T11:48:40.545Z,18.4
2023-01-26T11:52:40.551Z,19.67
2023-01-26T11:56:40.527Z,18.4
2023-01-26T12:00:40.783Z,17.03
2023-01-26T12:04:40.544Z,18.93
2023-01-26T12:08:40.927Z,16.97
2023-01-26T12:12:40.567Z,17.2
2023-01-26T12:16:40.405Z,17.07
2023-01-26T12:20:40.673Z,17.33
2023-01-26T12:25:08.354Z,12.17
2023-01-26T12:28:40.605Z,16
2023-01-26T12:32:40.565Z,14.97
2023-01-26T12:36:40.451Z,17.67
2023-01-26T12:40:40.570Z,15.13
2023-01-26T12:44:39.423Z,13.53
2023-01-26T12:48:40.463Z,12.27
2023-01-26T12:52:40.559Z,13.3
2023-01-26T12:56:40.910Z,13.03
2023-01-26T13:00:40.273Z,14.8
2023-01-26T13:04:39.562Z,12.23
2023-01-26T13:08:40.643Z,9.67
2023-01-26T13:12:40.535Z,11.77
2023-01-26T13:16:40.609Z,13.73
2023-01-26T13:20:40.553Z,12.73
2023-01-26T13:24:40.520Z,16.17
2023-01-26T13:28:40.568Z,16.5
2023-01-26T13:32:40.474Z,18.37
2023-01-26T13:36:41.199Z,19.6
2023-01-26T13:40:40.550Z,17.03
2023-01-26T13:44:40.513Z,15.53
2023-01-26T13:48:40.536Z,17.2
2023-01-26T13:52:40.935Z,18.17
2023-01-26T13:56:40.297Z,15.33
2023-01-26T14:00:40.803Z,15.77
2023-01-26T14:04:40.351Z,16.83
2023-01-26T14:08:41.075Z,16.23
2023-01-26T14:12:40.591Z,18.73
2023-01-26T14:16:39.914Z,18.6
2023-01-26T14:20:41.276Z,17.67
2023-01-26T14:24:39.542Z,19.33
2023-01-26T14:28:40.568Z,19.07
2023-01-26T14:32:40.415Z,17.03
2023-01-26T14:36:40.599Z,18.1
2023-01-26T14:40:40.577Z,17.5
2023-01-26T14:44:40.813Z,18.07
2023-01-26T14:48:40.584Z,18.3
2023-01-26T14:52:40.735Z,17.5
2023-01-26T14:56:40.618Z,17.43
2023-01-26T15:00:40.863Z,15.13
2023-01-26T15:04:40.092Z,17.57
2023-01-26T15:08:41.141Z,17.6
2023-01-26T15:12:40.988Z,16.9
2023-01-26T15:16:40.785Z,18.2
2023-01-26T15:20:40.925Z,16.87
2023-01-26T15:24:40.600Z,16.9
2023-01-26T15:28:40.874Z,16.83
2023-01-26T15:32:41.102Z,17.4
2023-01-26T15:36:40.567Z,15.97
2023-01-26T15:40:41.100Z,18.47
2023-01-26T15:44:40.450Z,17.27
2023-01-26T15:48:40.684Z,17.27
2023-01-26T15:52:40.650Z,16.53
2023-01-26T15:56:40.527Z,15.73
2023-01-26T16:00:40.811Z,18.2
2023-01-26T16:04:40.626Z,16.6
2023-01-26T16:08:40.537Z,15.73
2023-01-26T16:12:40.552Z,16.43
2023-01-26T16:16:40.761Z,16.93
2023-01-26T16:20:41.022Z,15.5
2023-01-26T16:24:40.600Z,14.57
2023-01-26T16:28:40.854Z,14.73
2023-01-26T16:32:40.686Z,19.53
2023-01-26T16:36:40.612Z,14.73
2023-01-26T16:40:40.539Z,14.8
2023-01-26T16:44:40.478Z,12.5
2023-01-26T16:48:40.218Z,12.4
2023-01-26T16:52:41.263Z,8.5
2023-01-26T16:56:40.262Z,10.17
2023-01-26T17:00:40.581Z,10.23
2023-01-26T17:04:40.524Z,12.63
2023-01-26T17:08:40.566Z,12.13
2023-01-26T17:12:40.483Z,11.3
2023-01-26T17:16:40.728Z,11.43
2023-01-26T17:20:40.433Z,11.4
2023-01-26T17:24:41.080Z,10.63
2023-01-26T17:28:40.740Z,10.53
2023-01-26T17:32:40.630Z,10.83
2023-01-26T17:36:40.682Z,10.87
2023-01-26T17:40:41.205Z,14.07
2023-01-26T17:44:41.226Z,12.27
2023-01-26T17:48:40.603Z,12.03
2023-01-26T17:52:40.450Z,11.13
2023-01-26T17:56:40.439Z,11.5
2023-01-26T18:00:40.662Z,14.1
2023-01-26T18:04:40.510Z,13.2
2023-01-26T18:08:40.542Z,11.37
2023-01-26T18:12:40.786Z,13.33
2023-01-26T18:16:40.604Z,12.13
2023-01-26T18:20:40.524Z,14.73
2023-01-26T18:24:40.608Z,15.1
2023-01-26T18:28:40.545Z,10.33
2023-01-26T18:32:40.131Z,13.2
2023-01-26T18:36:41.061Z,10.2
2023-01-26T18:40:41.235Z,13.93
2023-01-26T18:44:40.536Z,13.87
2023-01-26T18:48:40.454Z,15.2
2023-01-26T18:52:40.668Z,12.43
2023-01-26T18:56:40.513Z,14.77
2023-01-26T19:00:40.674Z,15.2
2023-01-26T19:04:39.853Z,14.2
2023-01-26T19:08:40.535Z,13.7
2023-01-26T19:12:41.167Z,12.8
2023-01-26T19:16:41.230Z,15.13
2023-01-26T19:20:40.803Z,13.27
2023-01-26T19:24:40.669Z,11.33
2023-01-26T19:28:40.564Z,11.9
2023-01-26T19:32:40.581Z,11.47
2023-01-26T19:36:40.458Z,12.67
2023-01-26T19:40:40.873Z,12.73
2023-01-26T19:44:40.533Z,11.87
2023-01-26T19:48:40.631Z,10.77
2023-01-26T19:52:40.408Z,10.77
2023-01-26T19:56:40.534Z,10.8
2023-01-26T20:00:40.654Z,11.77
2023-01-26T20:04:40.668Z,11.13
2023-01-26T20:08:40.711Z,11.53
2023-01-26T20:12:40.493Z,8.07
2023-01-26T20:16:40.656Z,11.83
2023-01-26T20:20:40.721Z,11.9
2023-01-26T20:24:40.999Z,12.1
2023-01-26T20:28:40.187Z,11.17
2023-01-26T20:32:39.486Z,12.23
2023-01-26T20:36:40.464Z,10.97
2023-01-26T20:40:40.587Z,11.2
2023-01-26T20:44:43.285Z,12.63
2023-01-26T20:48:40.610Z,13.1
2023-01-26T20:52:43.463Z,13.53
2023-01-26T20:56:40.452Z,12.47
2023-01-26T21:00:40.775Z,13.07
2023-01-26T21:04:40.618Z,12.93
2023-01-26T21:08:40.428Z,12.37
2023-01-26T21:12:40.754Z,11.97
2023-01-26T21:16:40.347Z,11.43
2023-01-26T21:20:39.947Z,11.53
2023-01-26T21:24:39.312Z,11.77
2023-01-26T21:28:40.690Z,11.1
2023-01-26T21:32:40.516Z,10.63
2023-01-26T21:36:40.403Z,11.1
2023-01-26T21:40:40.560Z,9.97
2023-01-26T21:44:40.678Z,11.23
2023-01-26T21:48:40.736Z,10.37
2023-01-26T21:52:40.862Z,9.77
2023-01-26T21:56:40.494Z,9.33
2023-01-26T22:00:40.563Z,9.77
2023-01-26T22:04:40.545Z,10.03
2023-01-26T22:08:40.627Z,9.77
2023-01-26T22:12:41.307Z,8.13
2023-01-26T22:16:41.170Z,9.33
2023-01-26T22:20:40.585Z,10.4
2023-01-26T22:24:40.524Z,10
2023-01-26T22:28:40.503Z,10.33
2023-01-26T22:32:40.349Z,10.5
2023-01-26T22:36:41.229Z,11.47
2023-01-26T22:40:40.433Z,10.43
2023-01-26T22:44:40.603Z,9.17
2023-01-26T22:48:40.818Z,11.23
2023-01-26T22:52:40.885Z,9.6
2023-01-26T22:56:40.384Z,10.8
2023-01-26T23:00:40.448Z,9.67
2023-01-26T23:04:40.816Z,11.1
2023-01-26T23:08:40.685Z,11.73
2023-01-26T23:12:40.799Z,11.6
2023-01-26T23:16:40.573Z,10.2
2023-01-26T23:20:40.795Z,9.77
2023-01-26T23:24:40.548Z,12.97
2023-01-26T23:28:40.591Z,11.27
2023-01-26T23:32:40.731Z,13.2
2023-01-26T23:36:39.576Z,13.97
2023-01-26T23:40:40.659Z,13
2023-01-26T23:44:40.291Z,15.07
2023-01-26T23:48:40.959Z,12.83
2023-01-26T23:52:40.522Z,13.27
2023-01-26T23:56:40.549Z,14.13
